createdAt,value
2022-12-22T00:04:34.614Z,34.42
2022-12-22T00:09:54.444Z,37.33
2022-12-22T00:15:15.970Z,32.70
2022-12-22T00:20:36.844Z,33.63
2022-12-22T00:25:56.595Z,36.70
2022-12-22T00:31:18.266Z,37.08
2022-12-22T00:36:42.903Z,31.10
2022-12-22T00:42:02.734Z,33.38
2022-12-22T00:47:23.849Z,33.25
2022-12-22T00:52:43.738Z,34.17
2022-12-22T00:58:03.502Z,33.50
2022-12-22T01:03:28.043Z,33.90
2022-12-22T01:08:48.182Z,35.95
2022-12-22T01:14:08.014Z,32.83
2022-12-22T01:19:29.206Z,32.15
2022-12-22T01:24:48.917Z,32.20
2022-12-22T01:30:08.816Z,37.08
2022-12-22T01:35:35.821Z,30.88
2022-12-22T01:40:55.520Z,36.97
2022-12-22T01:46:15.460Z,33.65
2022-12-22T01:51:40.460Z,34.25
2022-12-22T01:57:00.846Z,35.13
2022-12-22T02:02:23.431Z,40.78
2022-12-22T02:08:04.796Z,39.40
2022-12-22T02:13:29.630Z,36.55
2022-12-22T02:18:53.072Z,37.40
2022-12-22T02:24:24.943Z,40.03
2022-12-22T02:29:47.763Z,40.20
2022-12-22T02:35:07.462Z,44.42
2022-12-22T02:40:32.308Z,48.25
2022-12-22T02:46:00.752Z,48.05
2022-12-22T02:51:24.140Z,45.45
2022-12-22T02:56:43.972Z,49.35
2022-12-22T03:02:05.843Z,53.75
2022-12-22T03:07:25.742Z,50.50
2022-12-22T03:12:45.597Z,49.55
2022-12-22T03:18:06.701Z,57.90
2022-12-22T03:23:27.679Z,53.63
2022-12-22T03:28:30.304Z,52.10
2022-12-22T03:33:34.444Z,54.83
2022-12-22T03:38:36.896Z,52.72
2022-12-22T03:43:58.994Z,51.25
2022-12-22T03:49:13.093Z,57.78
2022-12-22T03:54:17.042Z,73.10
2022-12-22T03:59:19.957Z,59.97
2022-12-22T04:04:24.523Z,57.25
2022-12-22T04:09:27.726Z,57.33
2022-12-22T04:14:34.196Z,65.28
2022-12-22T04:19:38.625Z,58.47
2022-12-22T04:24:40.976Z,80.30
2022-12-22T04:29:43.317Z,76.65
2022-12-22T04:34:47.075Z,68.18
2022-12-22T04:39:49.476Z,87.68
2022-12-22T04:44:52.077Z,72.25
2022-12-22T04:49:56.534Z,71.70
2022-12-22T04:54:58.887Z,91.50
2022-12-22T05:00:01.277Z,99.00
2022-12-22T05:05:05.193Z,86.78
2022-12-22T05:10:08.131Z,144.73
2022-12-22T05:15:10.882Z,69.97
2022-12-22T05:20:14.619Z,87.10
2022-12-22T05:25:17.517Z,91.22
2022-12-22T05:30:20.465Z,68.30
2022-12-22T05:35:24.233Z,62.55
2022-12-22T05:40:26.604Z,102.88
2022-12-22T05:45:29.004Z,79.38
2022-12-22T05:50:32.709Z,141.40
2022-12-22T05:55:35.200Z,103.60
2022-12-22T06:00:37.577Z,102.53
2022-12-22T06:05:41.291Z,120.13
2022-12-22T06:10:43.691Z,91.22
2022-12-22T06:15:46.061Z,98.72
2022-12-22T06:20:51.681Z,133.20
2022-12-22T06:25:54.958Z,105.80
2022-12-22T06:30:57.475Z,94.30
2022-12-22T06:36:04.766Z,84.65
2022-12-22T06:41:07.187Z,95.95
2022-12-22T06:46:09.589Z,111.80
2022-12-22T06:51:13.394Z,98.50
2022-12-22T06:56:15.819Z,80.57
2022-12-22T07:01:18.208Z,103.05
2022-12-22T07:06:21.929Z,96.13
2022-12-22T07:11:24.362Z,101.20
2022-12-22T07:16:26.784Z,92.63
2022-12-22T07:21:30.605Z,92.43
2022-12-22T07:26:33.014Z,82.90
2022-12-22T07:31:35.518Z,76.10
2022-12-22T07:36:39.233Z,89.00
2022-12-22T07:41:59.436Z,94.00
2022-12-22T07:47:01.893Z,94.85
2022-12-22T07:52:06.771Z,92.47
2022-12-22T07:57:09.219Z,99.93
2022-12-22T08:02:12.471Z,86.35
2022-12-22T08:07:16.242Z,76.38
2022-12-22T08:12:18.638Z,80.10
2022-12-22T08:17:21.032Z,82.90
2022-12-22T08:22:24.955Z,80.78
2022-12-22T08:27:30.679Z,77.40
2022-12-22T08:32:33.100Z,76.38
2022-12-22T08:37:41.222Z,75.70
2022-12-22T08:42:43.768Z,79.60
2022-12-22T08:47:46.135Z,78.10
2022-12-22T08:52:49.909Z,87.90
2022-12-22T08:57:56.002Z,56.40
2022-12-22T09:02:59.031Z,48.65
2022-12-22T09:08:02.810Z,37.77
2022-12-22T09:13:05.220Z,37.30
2022-12-22T09:18:07.608Z,35.50
2022-12-22T09:23:11.338Z,44.28
2022-12-22T09:28:13.799Z,42.15
2022-12-22T09:33:16.184Z,47.97
2022-12-22T09:38:20.143Z,44.17
2022-12-22T09:43:26.879Z,43.20
2022-12-22T09:48:34.757Z,53.22
2022-12-22T09:53:38.685Z,46.08
2022-12-22T09:58:41.550Z,45.83
2022-12-22T10:03:45.136Z,46.53
2022-12-22T10:08:48.817Z,38.30
2022-12-22T10:13:51.199Z,41.28
2022-12-22T10:18:58.533Z,36.00
2022-12-22T10:24:15.054Z,32.20
2022-12-22T10:29:18.884Z,24.83
2022-12-22T10:34:21.348Z,23.20
2022-12-22T10:39:26.408Z,23.40
2022-12-22T10:44:29.911Z,23.30
2022-12-22T10:54:37.039Z,22.38
2022-12-22T10:59:49.021Z,20.77
2022-12-22T11:04:52.006Z,19.95
2022-12-22T11:09:55.706Z,22.38
2022-12-22T11:15:00.862Z,18.55
2022-12-22T11:20:23.358Z,23.20
2022-12-22T11:25:30.759Z,19.95
2022-12-22T11:30:37.583Z,17.02
2022-12-22T11:35:45.163Z,17.73
2022-12-22T11:40:51.842Z,17.05
2022-12-22T11:46:10.656Z,14.48
2022-12-22T11:51:22.194Z,16.75
2022-12-22T11:56:32.052Z,12.80
2022-12-22T12:01:44.026Z,22.50
2022-12-22T12:07:04.210Z,18.00
2022-12-22T12:12:14.180Z,12.52
2022-12-22T12:17:21.403Z,11.88
2022-12-22T12:22:28.326Z,14.63
2022-12-22T12:27:39.134Z,8.55
2022-12-22T12:32:43.600Z,13.15
2022-12-22T12:37:48.582Z,13.40
2022-12-22T12:42:53.690Z,9.85
2022-12-22T12:48:16.124Z,11.35
2022-12-22T12:53:18.859Z,13.13
2022-12-22T12:58:40.093Z,10.30
2022-12-22T13:14:47.439Z,11.52
2022-12-22T13:19:52.211Z,10.65
2022-12-22T13:24:54.687Z,11.65
2022-12-22T13:29:57.250Z,9.27
2022-12-22T13:40:31.955Z,14.63
2022-12-22T13:45:36.947Z,19.02
2022-12-22T13:50:43.718Z,17.55
2022-12-22T13:55:47.173Z,20.90
2022-12-22T14:05:53.376Z,27.10
2022-12-22T14:10:56.257Z,32.15
2022-12-22T14:16:02.503Z,30.25
2022-12-22T14:21:07.386Z,32.28
2022-12-22T14:26:14.643Z,36.55
2022-12-22T14:31:17.381Z,37.78
2022-12-22T14:36:23.631Z,34.78
2022-12-22T14:41:43.032Z,34.25
2022-12-22T14:46:46.275Z,35.20
2022-12-22T14:52:01.326Z,30.52
2022-12-22T14:57:11.627Z,24.90
2022-12-22T15:02:26.367Z,22.20
2022-12-22T15:08:03.837Z,24.55
2022-12-22T15:12:56.081Z,53.03
2022-12-22T15:17:58.667Z,28.70
2022-12-22T15:23:02.409Z,29.87
2022-12-22T15:28:04.978Z,30.67
2022-12-22T15:33:11.520Z,29.13
2022-12-22T15:38:15.717Z,30.75
2022-12-22T15:43:53.862Z,28.40
2022-12-22T15:48:41.167Z,32.60
2022-12-22T15:53:45.239Z,29.25
2022-12-22T15:58:47.997Z,35.33
2022-12-22T16:03:50.437Z,32.27
2022-12-22T16:08:54.707Z,36.88
2022-12-22T16:13:57.154Z,38.40
2022-12-22T16:18:59.579Z,34.72
2022-12-22T16:24:03.981Z,44.97
2022-12-22T16:29:06.378Z,33.80
2022-12-22T16:34:10.387Z,38.05
2022-12-22T16:39:14.145Z,44.95
2022-12-22T16:49:40.844Z,43.15
2022-12-22T16:54:49.212Z,44.63
2022-12-22T16:59:54.767Z,47.58
2022-12-22T17:05:00.172Z,42.65
2022-12-22T17:10:03.955Z,54.55
2022-12-22T17:15:06.698Z,48.85
2022-12-22T17:20:13.743Z,44.77
2022-12-22T17:25:19.290Z,52.05
2022-12-22T17:30:23.091Z,53.72
2022-12-22T17:35:28.682Z,52.05
2022-12-22T17:40:32.601Z,50.67
2022-12-22T17:45:35.019Z,49.40
2022-12-22T17:50:37.450Z,53.75
2022-12-22T17:56:07.164Z,54.13
2022-12-22T18:01:03.896Z,58.10
2022-12-22T18:06:06.487Z,60.22
2022-12-22T18:11:10.511Z,64.93
2022-12-22T18:16:16.754Z,58.70
2022-12-22T18:21:20.768Z,61.17
2022-12-22T18:26:25.683Z,60.45
2022-12-22T18:31:28.252Z,62.75
2022-12-22T18:36:34.031Z,62.53
2022-12-22T18:41:38.271Z,62.83
2022-12-22T18:46:40.779Z,55.28
2022-12-22T18:51:43.240Z,66.10
2022-12-22T18:56:47.548Z,51.67
2022-12-22T19:01:50.123Z,51.13
2022-12-22T19:06:52.575Z,51.73
2022-12-22T19:11:56.271Z,50.75
2022-12-22T19:16:58.778Z,47.85
2022-12-22T19:22:01.193Z,49.47
2022-12-22T19:27:04.965Z,53.40
2022-12-22T19:32:07.463Z,45.60
2022-12-22T19:37:10.149Z,49.57
2022-12-22T19:42:14.561Z,48.00
2022-12-22T19:47:18.447Z,52.58
2022-12-22T19:52:23.201Z,49.88
2022-12-22T19:57:26.942Z,55.78
2022-12-22T20:02:30.523Z,43.33
2022-12-22T20:07:38.683Z,50.08
2022-12-22T20:12:46.055Z,46.50
2022-12-22T20:17:48.992Z,44.67
2022-12-22T20:22:52.521Z,41.17
2022-12-22T20:27:56.662Z,44.33
2022-12-22T20:32:59.075Z,42.95
2022-12-22T20:38:01.435Z,43.72
2022-12-22T20:43:05.184Z,40.05
2022-12-22T20:48:07.677Z,42.85
2022-12-22T20:53:15.011Z,41.63
2022-12-22T20:58:21.524Z,48.85
2022-12-22T21:03:24.060Z,38.85
2022-12-22T21:08:27.233Z,45.77
2022-12-22T21:13:31.812Z,45.42
2022-12-22T21:18:34.422Z,53.10
2022-12-22T21:23:36.821Z,49.43
2022-12-22T21:28:40.692Z,49.92
2022-12-22T21:33:43.139Z,51.03
2022-12-22T21:38:47.330Z,53.55
2022-12-22T21:43:51.129Z,46.88
2022-12-22T21:48:53.528Z,52.40
2022-12-22T21:53:55.913Z,55.63
2022-12-22T21:59:03.689Z,45.28
2022-12-22T22:04:06.598Z,44.88
2022-12-22T22:09:08.986Z,48.97
2022-12-22T22:14:12.701Z,42.95
2022-12-22T22:19:15.077Z,41.33
2022-12-22T22:24:17.524Z,45.28
2022-12-22T22:29:21.406Z,41.10
2022-12-22T22:34:23.847Z,41.45
2022-12-22T22:39:26.333Z,42.50
2022-12-22T22:44:31.135Z,40.40
2022-12-22T22:49:33.623Z,39.72
2022-12-22T22:54:36.740Z,40.10
2022-12-22T22:59:40.498Z,40.42
2022-12-22T23:04:42.925Z,45.45
2022-12-22T23:09:45.316Z,36.90
2022-12-22T23:14:49.033Z,38.95
2022-12-22T23:19:51.416Z,40.95
2022-12-22T23:24:53.833Z,37.22
2022-12-22T23:29:57.622Z,38.33
2022-12-22T23:35:00.023Z,37.63
2022-12-22T23:40:33.155Z,37.80
2022-12-22T23:45:28.554Z,33.63
2022-12-22T23:50:30.980Z,30.95
2022-12-22T23:55:33.473Z,30.65
